Barrhead, Canada
Current Conditions -  °F | °C
As of 10:11 PM on Sunday 21 Dec 2014 (Local Time) from CZVL Reporting Station
Overcast Overcast  
Wind Chill: 24°   Ceiling: 10000
Heat Index: 32°   Visibility: 9mi
Dew Point: 32°   Wind: 9mph
Humidity: 100%   Direction: 290°WNW
Pressure: 29.57"   Gusts: NA
Location:  54.12°N, 114.4°W
Report Text: CZVL 220511Z AUTO 29008KT 9SM SCT080 BKN100 OVC120 00/M00 A2957 RMK SLP049
Loading
Personal Weather Stations






























Interactive Weather Map New forecast layout! Learn more

10-Day Weather Forecast

Advertisements
Track Severe Weather on mobile